Time;durP1;ratioP1;P1;durP2;ratioP2;P2;SDS_P1;SDS_P2;PMS_P1;PMS_P2;Temp;Humidity;BMP_temperature;BMP_pressure;BME280_temperature;BME280_humidity;BME280_pressure;Samples;Min_cycle;Max_cycle;Signal;HPM_P1;HPM_P2
2022/09/05 00:00:51;;;;;;;5.00;1.67;;;17.90;99.90;;;;;;5051435;28;20056;-82
2022/09/05 00:03:26;;;;;;;2.72;1.52;;;17.90;99.90;;;;;;5051731;28;20033;-83
2022/09/05 00:06:12;;;;;;;3.03;1.57;;;17.80;99.90;;;;;;5034831;28;20040;-82
2022/09/05 00:09:11;;;;;;;2.88;1.75;;;17.70;99.90;;;;;;5071739;28;20024;-83
2022/09/05 00:11:57;;;;;;;2.38;1.55;;;17.60;99.90;;;;;;5048981;28;20033;-83
2022/09/05 00:14:52;;;;;;;4.60;1.77;;;17.50;99.90;;;;;;5053313;28;20031;-84
2022/09/05 00:17:46;;;;;;;4.05;1.40;;;17.50;99.90;;;;;;5053298;28;20028;-84
2022/09/05 00:20:17;;;;;;;4.13;1.30;;;17.40;99.90;;;;;;5041116;28;20032;-81
2022/09/05 00:23:02;;;;;;;3.63;1.48;;;17.40;99.90;;;;;;5040937;28;20111;-82
2022/09/05 00:25:39;;;;;;;5.90;1.58;;;17.30;99.90;;;;;;5069478;28;20024;-81
2022/09/05 00:28:42;;;;;;;4.10;2.05;;;17.20;99.90;;;;;;5051681;28;20029;-82
2022/09/05 00:31:20;;;;;;;3.80;1.63;;;17.10;99.90;;;;;;5050755;28;20052;-82
2022/09/05 00:34:05;;;;;;;5.28;1.65;;;17.10;99.90;;;;;;5051574;28;20017;-82
2022/09/05 00:36:46;;;;;;;3.53;1.98;;;17.00;99.90;;;;;;5051106;28;20112;-81
2022/09/05 00:39:18;;;;;;;3.38;1.70;;;16.90;99.90;;;;;;5051104;28;20032;-81
2022/09/05 00:41:48;;;;;;;5.20;1.70;;;16.80;99.90;;;;;;5050862;28;20094;-82
2022/09/05 00:44:15;;;;;;;2.40;1.33;;;16.80;99.90;;;;;;5051064;28;20489;-82
2022/09/05 00:47:10;;;;;;;3.17;1.33;;;16.70;99.90;;;;;;5049917;28;20139;-81
2022/09/05 00:49:42;;;;;;;2.40;1.40;;;16.70;99.90;;;;;;5068763;28;20037;-81
2022/09/05 00:52:30;;;;;;;4.28;1.50;;;16.70;99.90;;;;;;5045679;28;20029;-84
2022/09/05 00:55:30;;;;;;;2.65;1.33;;;16.70;99.90;;;;;;5033064;28;20025;-85
2022/09/05 00:58:20;;;;;;;2.97;1.58;;;16.60;99.90;;;;;;5032799;28;20025;-83
2022/09/05 01:00:57;;;;;;;3.03;1.67;;;16.60;99.90;;;;;;5032688;28;20076;-82
2022/09/05 01:03:26;;;;;;;3.65;1.65;;;16.60;99.90;;;;;;5031694;28;20492;-83
2022/09/05 01:05:54;;;;;;;7.88;2.08;;;16.60;99.90;;;;;;5031643;28;20547;-82
2022/09/05 01:08:41;;;;;;;3.45;1.95;;;16.50;99.90;;;;;;5031835;28;20053;-82
2022/09/05 01:11:17;;;;;;;3.95;1.60;;;16.50;99.90;;;;;;5049641;28;20018;-82
2022/09/05 01:14:13;;;;;;;3.67;1.90;;;16.50;99.90;;;;;;5031724;28;20037;-82
2022/09/05 01:17:07;;;;;;;4.70;1.80;;;16.50;99.90;;;;;;5030689;28;20060;-84
2022/09/05 01:20:09;;;;;;;2.88;1.58;;;16.50;99.90;;;;;;5041763;28;20560;-84
2022/09/05 01:22:56;;;;;;;3.08;1.65;;;16.40;99.90;;;;;;5048680;28;20021;-83
2022/09/05 01:25:42;;;;;;;3.65;1.33;;;16.40;99.90;;;;;;5030988;28;20033;-83
2022/09/05 01:28:45;;;;;;;5.47;1.48;;;16.40;99.90;;;;;;5032367;28;20040;-83
2022/09/05 01:31:26;;;;;;;2.53;1.27;;;16.40;99.90;;;;;;5031901;28;20029;-83
2022/09/05 01:34:11;;;;;;;2.40;1.25;;;16.40;99.90;;;;;;5030185;28;20036;-82
2022/09/05 01:36:50;;;;;;;8.18;1.77;;;16.40;99.90;;;;;;5060399;28;20033;-83
2022/09/05 01:39:28;;;;;;;2.97;1.13;;;16.30;99.90;;;;;;5050927;28;20031;-83
2022/09/05 01:41:53;;;;;;;3.50;1.45;;;16.30;99.90;;;;;;5050036;28;20024;-82
2022/09/05 01:44:29;;;;;;;4.82;1.58;;;16.20;99.90;;;;;;5051016;28;20031;-82
2022/09/05 01:47:16;;;;;;;2.40;1.40;;;16.20;99.90;;;;;;5068796;28;20093;-83
2022/09/05 01:50:07;;;;;;;4.72;1.80;;;16.10;99.90;;;;;;5051158;28;20051;-82
2022/09/05 01:52:59;;;;;;;7.15;1.63;;;16.00;99.90;;;;;;5070575;28;20032;-82
2022/09/05 01:55:59;;;;;;;3.53;1.73;;;16.00;99.90;;;;;;5050477;28;20437;-83
2022/09/05 01:58:54;;;;;;;2.85;1.65;;;15.90;99.90;;;;;;5036619;28;20025;-83
2022/09/05 02:01:51;;;;;;;4.93;1.55;;;15.80;99.90;;;;;;5030522;28;20032;-82
2022/09/05 02:04:48;;;;;;;3.00;1.77;;;15.80;99.90;;;;;;5049264;28;20039;-82
2022/09/05 02:07:20;;;;;;;2.10;1.40;;;15.70;99.90;;;;;;5035902;28;20433;-83
2022/09/05 02:10:04;;;;;;;3.45;1.63;;;15.70;99.90;;;;;;5030361;28;20481;-83
2022/09/05 02:12:41;;;;;;;3.38;1.83;;;15.60;99.90;;;;;;5031486;28;20097;-83
2022/09/05 02:15:14;;;;;;;3.42;1.25;;;15.60;99.90;;;;;;5029949;28;20497;-83
2022/09/05 02:17:40;;;;;;;3.63;1.98;;;15.60;99.90;;;;;;5030491;28;20484;-82
2022/09/05 02:20:46;;;;;;;4.10;2.00;;;15.50;99.90;;;;;;5030908;28;20111;-82
2022/09/05 02:23:30;;;;;;;4.20;2.03;;;15.50;99.90;;;;;;5030044;28;20033;-84
2022/09/05 02:26:05;;;;;;;5.10;1.85;;;15.50;99.90;;;;;;5047928;28;20191;-84
2022/09/05 02:28:55;;;;;;;2.83;1.35;;;15.50;99.90;;;;;;5030619;28;20419;-84
2022/09/05 02:31:46;;;;;;;3.97;1.63;;;15.40;99.90;;;;;;5048316;28;20052;-83
2022/09/05 02:34:24;;;;;;;5.60;2.38;;;15.40;99.90;;;;;;5030587;28;20241;-83
2022/09/05 02:37:13;;;;;;;2.63;1.63;;;15.40;99.90;;;;;;5048588;28;20035;-83
2022/09/05 02:39:46;;;;;;;4.00;2.17;;;15.40;99.90;;;;;;5030696;28;20558;-83
2022/09/05 02:42:23;;;;;;;5.22;1.80;;;15.40;99.90;;;;;;5041941;28;20036;-82
2022/09/05 02:45:06;;;;;;;3.08;1.98;;;15.40;99.90;;;;;;5051339;28;20028;-82
2022/09/05 02:48:10;;;;;;;2.28;1.65;;;15.40;99.90;;;;;;5050438;28;20050;-83
2022/09/05 02:50:41;;;;;;;3.33;1.88;;;15.40;99.90;;;;;;5005760;28;20030;-82
2022/09/05 02:53:11;;;;;;;5.88;1.70;;;15.40;99.90;;;;;;5039391;28;20497;-82
2022/09/05 02:55:55;;;;;;;2.63;1.27;;;15.40;99.90;;;;;;5050400;28;20489;-83
2022/09/05 02:58:33;;;;;;;9.68;1.63;;;15.30;99.90;;;;;;5049786;28;20407;-82
2022/09/05 03:01:09;;;;;;;3.20;1.60;;;15.30;99.90;;;;;;5049701;28;20055;-83
2022/09/05 03:03:53;;;;;;;4.53;2.00;;;15.30;99.90;;;;;;5050470;28;20032;-83
2022/09/05 03:06:59;;;;;;;3.72;1.92;;;15.30;99.90;;;;;;5050259;28;20032;-82
2022/09/05 03:09:45;;;;;;;5.25;1.77;;;15.20;99.90;;;;;;5033269;28;20071;-81
2022/09/05 03:12:35;;;;;;;4.93;2.10;;;15.10;99.90;;;;;;5054294;28;20035;-83
2022/09/05 03:15:32;;;;;;;3.40;2.15;;;15.10;99.90;;;;;;5054660;28;20231;-82
2022/09/05 03:18:09;;;;;;;4.30;1.98;;;15.10;99.90;;;;;;5062233;28;20020;-82
2022/09/05 03:20:53;;;;;;;5.65;2.20;;;15.00;99.90;;;;;;5034296;28;20047;-82
2022/09/05 03:23:40;;;;;;;5.88;2.00;;;15.00;99.90;;;;;;5033878;28;20530;-83
2022/09/05 03:26:15;;;;;;;3.90;2.08;;;15.00;99.90;;;;;;5044128;28;20036;-83
2022/09/05 03:29:16;;;;;;;3.60;2.33;;;15.00;99.90;;;;;;5054210;28;20559;-83
2022/09/05 03:31:51;;;;;;;5.00;2.10;;;15.00;99.90;;;;;;5053499;28;20071;-84
2022/09/05 03:34:35;;;;;;;3.10;1.83;;;14.90;99.90;;;;;;5053224;28;20025;-83
2022/09/05 03:37:31;;;;;;;5.05;2.30;;;14.90;99.90;;;;;;5053592;28;20093;-82
2022/09/05 03:40:15;;;;;;;3.38;2.13;;;15.00;99.90;;;;;;5053074;28;20089;-83
2022/09/05 03:43:04;;;;;;;3.83;2.15;;;14.90;99.90;;;;;;5053266;28;20021;-83
2022/09/05 03:45:57;;;;;;;3.28;1.75;;;14.90;99.90;;;;;;5053524;28;20094;-83
2022/09/05 03:48:59;;;;;;;4.20;1.85;;;14.90;99.90;;;;;;5053309;28;20055;-82
2022/09/05 03:52:03;;;;;;;8.27;2.33;;;14.80;99.90;;;;;;5053455;28;20029;-83
2022/09/05 03:54:46;;;;;;;5.85;2.38;;;14.80;99.90;;;;;;5070940;28;20089;-83
2022/09/05 03:57:34;;;;;;;4.93;2.28;;;14.80;99.90;;;;;;5052764;28;20028;-82
2022/09/05 04:00:21;;;;;;;3.42;2.25;;;14.80;99.90;;;;;;5053187;28;20485;-83
2022/09/05 04:03:11;;;;;;;2.72;1.85;;;14.80;99.90;;;;;;5052977;28;20037;-83
2022/09/05 04:05:41;;;;;;;5.32;2.83;;;14.80;99.90;;;;;;5053946;28;20025;-82
2022/09/05 04:08:10;;;;;;;4.57;2.22;;;14.70;99.90;;;;;;5054572;28;20048;-82
2022/09/05 04:10:51;;;;;;;5.93;2.42;;;14.80;99.90;;;;;;5052852;28;20049;-83
2022/09/05 04:13:44;;;;;;;7.20;2.53;;;14.80;99.90;;;;;;5052686;28;20063;-82
2022/09/05 04:16:30;;;;;;;4.57;2.55;;;14.80;99.90;;;;;;5053162;28;20127;-83
2022/09/05 04:19:34;;;;;;;4.78;2.42;;;14.80;99.90;;;;;;5052642;28;20206;-82
2022/09/05 04:22:18;;;;;;;4.75;2.45;;;14.80;99.90;;;;;;5051963;28;20510;-82
2022/09/05 04:25:05;;;;;;;4.88;2.08;;;14.80;99.90;;;;;;5070098;28;20029;-82
2022/09/05 04:27:50;;;;;;;;;;;14.80;99.90;;;;;;5053248;28;20048;-83
2022/09/05 04:30:30;;;;;;;6.03;2.97;;;14.80;99.90;;;;;;5051696;28;19904;-83
2022/09/05 04:33:18;;;;;;;6.35;2.53;;;14.80;99.90;;;;;;5051443;28;20577;-83
2022/09/05 04:36:22;;;;;;;5.47;3.00;;;14.80;99.90;;;;;;5051896;28;20056;-82
2022/09/05 04:39:08;;;;;;;3.60;2.05;;;14.90;99.90;;;;;;5051773;28;20031;-83
2022/09/05 04:41:40;;;;;;;3.38;2.15;;;14.90;99.90;;;;;;5051965;28;20036;-82
2022/09/05 04:44:18;;;;;;;7.40;2.55;;;15.00;99.90;;;;;;5070078;28;20025;-83
2022/09/05 04:46:50;;;;;;;7.43;2.17;;;15.10;99.90;;;;;;5051316;28;20055;-83
2022/09/05 04:49:22;;;;;;;5.85;2.28;;;15.30;99.90;;;;;;5052062;28;20028;-83
2022/09/05 04:52:00;;;;;;;4.93;2.00;;;15.60;99.90;;;;;;5051884;28;20028;-83
2022/09/05 04:54:40;;;;;;;4.70;2.15;;;15.90;99.90;;;;;;5051453;28;20447;-83
2022/09/05 04:57:19;;;;;;;3.30;1.85;;;16.30;99.90;;;;;;5051909;28;20066;-81
2022/09/05 04:59:52;;;;;;;5.95;1.98;;;16.70;99.90;;;;;;5052041;28;20028;-82
2022/09/05 05:02:24;;;;;;;10.30;1.73;;;16.90;99.90;;;;;;5037962;28;20032;-82
2022/09/05 05:05:01;;;;;;;4.25;2.10;;;17.00;99.90;;;;;;5032000;28;20036;-83
2022/09/05 05:07:54;;;;;;;5.97;1.83;;;17.20;99.90;;;;;;5031093;28;20039;-82
2022/09/05 05:10:41;;;;;;;6.18;2.35;;;17.30;99.90;;;;;;5044960;28;20024;-82
2022/09/05 05:13:15;;;;;;;;;;;17.70;99.90;;;;;;5069332;28;20097;-83
2022/09/05 05:16:19;;;;;;;6.35;2.03;;;18.30;99.90;;;;;;5051575;28;19905;-82
2022/09/05 05:18:55;;;;;;;7.93;2.30;;;19.10;99.90;;;;;;5069762;28;20025;-83
2022/09/05 05:21:26;;;;;;;4.47;2.15;;;19.80;99.90;;;;;;5069702;28;20096;-83
2022/09/05 05:24:00;;;;;;;4.20;2.28;;;20.30;99.90;;;;;;5051513;28;20039;-83
2022/09/05 05:26:41;;;;;;;4.88;2.47;;;20.70;99.90;;;;;;5051203;28;20054;-83
2022/09/05 05:29:14;;;;;;;3.83;2.13;;;21.30;99.90;;;;;;5051713;28;20064;-83
2022/09/05 05:31:51;;;;;;;4.43;2.60;;;21.40;99.90;;;;;;5050215;28;20039;-84
2022/09/05 05:34:23;;;;;;;14.15;2.20;;;21.70;99.90;;;;;;5051190;28;20473;-83
2022/09/05 05:36:59;;;;;;;5.78;1.85;;;22.00;99.90;;;;;;5034990;28;20100;-84
2022/09/05 05:39:29;;;;;;;4.35;1.52;;;22.40;99.90;;;;;;5030844;28;20036;-83
2022/09/05 05:41:57;;;;;;;5.60;1.35;;;22.60;99.90;;;;;;5041082;28;20025;-83
2022/09/05 05:44:30;;;;;;;3.72;1.48;;;22.70;99.90;;;;;;5051346;28;20051;-83
2022/09/05 05:47:17;;;;;;;6.43;1.45;;;22.90;99.90;;;;;;5051107;28;20044;-85
2022/09/05 05:50:01;;;;;;;2.42;1.30;;;22.90;99.90;;;;;;5069080;28;20138;-83
2022/09/05 05:52:48;;;;;;;8.07;1.10;;;23.30;99.90;;;;;;5050968;28;20035;-84
2022/09/05 05:55:26;;;;;;;4.40;1.23;;;23.60;99.50;;;;;;5050920;28;20048;-84
2022/09/05 05:58:14;;;;;;;3.55;1.52;;;23.70;99.10;;;;;;5050082;28;20706;-84
2022/09/05 06:01:10;;;;;;;4.22;1.42;;;23.90;99.00;;;;;;5050774;28;20440;-85
2022/09/05 06:03:55;;;;;;;;;;;24.20;98.40;;;;;;5051304;28;20024;-85
2022/09/05 06:06:50;;;;;;;8.68;1.45;;;24.30;97.80;;;;;;5050802;28;20366;-84
2022/09/05 06:09:41;;;;;;;2.47;1.10;;;24.50;97.30;;;;;;5072599;28;20090;-85
2022/09/05 06:12:28;;;;;;;1.95;1.20;;;24.80;96.80;;;;;;5069794;28;20035;-84
2022/09/05 06:15:32;;;;;;;1.95;0.98;;;25.10;96.50;;;;;;5085498;28;20025;-85
2022/09/05 06:18:26;;;;;;;3.25;0.82;;;25.70;94.50;;;;;;5052397;28;20504;-81
2022/09/05 06:21:11;;;;;;;3.05;0.60;;;26.00;93.00;;;;;;5051366;28;20024;-83
2022/09/05 06:24:01;;;;;;;4.90;0.90;;;26.50;91.90;;;;;;5051044;28;20388;-83
2022/09/05 06:26:27;;;;;;;2.55;0.93;;;27.00;90.00;;;;;;5051093;28;20090;-83
2022/09/05 06:29:03;;;;;;;1.98;1.17;;;27.20;87.90;;;;;;5050918;28;20028;-83
2022/09/05 06:31:33;;;;;;;1.88;0.77;;;27.70;85.00;;;;;;5050530;28;20083;-83
2022/09/05 06:34:26;;;;;;;1.70;0.90;;;27.90;83.20;;;;;;5051274;28;20024;-83
2022/09/05 06:37:10;;;;;;;4.15;0.90;;;28.30;81.40;;;;;;5050127;28;20506;-83
2022/09/05 06:39:55;;;;;;;2.28;0.70;;;28.60;79.30;;;;;;5050449;28;20527;-82
2022/09/05 06:42:36;;;;;;;5.78;0.65;;;29.00;76.90;;;;;;5057854;28;20020;-82
2022/09/05 06:45:40;;;;;;;1.90;0.95;;;29.20;75.10;;;;;;5030755;28;20033;-84
2022/09/05 06:48:16;;;;;;;3.58;1.33;;;29.40;72.70;;;;;;5003129;28;20387;-82
2022/09/05 06:51:02;;;;;;;3.17;0.90;;;29.70;70.80;;;;;;5030268;28;20031;-80
2022/09/05 06:53:44;;;;;;;3.80;0.82;;;30.10;67.30;;;;;;5047882;28;20083;-82
2022/09/05 06:56:27;;;;;;;3.47;0.98;;;30.40;66.60;;;;;;5029991;28;20055;-83
2022/09/05 06:59:02;;;;;;;4.25;1.13;;;30.80;64.50;;;;;;5048115;28;20064;-82
2022/09/05 07:01:32;;;;;;;2.53;0.85;;;31.00;63.20;;;;;;5032742;28;20024;-83
2022/09/05 07:04:37;;;;;;;2.75;1.00;;;30.90;62.60;;;;;;5050702;28;20034;-83
2022/09/05 07:07:26;;;;;;;3.28;1.00;;;31.10;62.10;;;;;;5049082;28;20127;-84
2022/09/05 07:10:11;;;;;;;2.72;0.80;;;31.10;60.20;;;;;;5049916;28;20029;-83
2022/09/05 07:12:48;;;;;;;1.38;0.60;;;31.00;58.90;;;;;;5068683;28;20028;-83
2022/09/05 07:15:41;;;;;;;5.22;1.13;;;31.00;59.50;;;;;;5050538;28;20028;-83
2022/09/05 07:18:13;;;;;;;2.72;1.38;;;31.30;56.70;;;;;;5049929;28;20021;-84
2022/09/05 07:20:51;;;;;;;4.88;0.95;;;30.70;57.70;;;;;;5068477;28;20029;-82
2022/09/05 07:23:39;;;;;;;4.65;0.82;;;30.90;57.50;;;;;;5050442;28;20036;-84
2022/09/05 07:26:08;;;;;;;3.65;0.75;;;31.00;58.10;;;;;;5049842;28;20033;-84
2022/09/05 07:28:39;;;;;;;7.38;0.88;;;31.00;56.70;;;;;;5066864;28;20032;-84
2022/09/05 07:31:17;;;;;;;3.88;1.08;;;30.80;56.70;;;;;;5067318;28;20103;-83
2022/09/05 07:33:46;;;;;;;3.38;0.90;;;30.80;57.00;;;;;;5045226;28;20492;-83
2022/09/05 07:36:22;;;;;;;4.13;1.05;;;30.90;56.10;;;;;;5041808;28;20027;-84
2022/09/05 07:38:53;;;;;;;2.70;0.90;;;31.10;56.50;;;;;;5068324;28;20517;-83
2022/09/05 07:41:23;;;;;;;2.92;0.85;;;31.40;56.20;;;;;;5048076;28;20445;-83
2022/09/05 07:43:55;;;;;;;6.40;0.98;;;31.60;55.50;;;;;;5031019;28;20083;-83
2022/09/05 07:46:30;;;;;;;7.32;0.95;;;32.00;54.90;;;;;;5030440;28;20025;-83
2022/09/05 07:49:06;;;;;;;4.75;0.77;;;32.10;54.80;;;;;;5030388;28;20111;-84
2022/09/05 07:51:35;;;;;;;7.82;1.05;;;32.70;53.00;;;;;;5048927;28;20114;-84
2022/09/05 07:54:23;;;;;;;8.45;0.90;;;32.60;53.40;;;;;;5050738;28;20384;-84
2022/09/05 07:57:08;;;;;;;6.07;1.25;;;32.60;52.60;;;;;;5053897;28;20025;-84
2022/09/05 07:59:37;;;;;;;4.43;0.80;;;33.10;52.30;;;;;;5053275;28;20119;-84
2022/09/05 08:02:07;;;;;;;2.17;0.90;;;33.30;51.20;;;;;;5053259;28;20512;-83
2022/09/05 08:04:35;;;;;;;3.05;0.85;;;33.40;50.80;;;;;;5053541;28;20028;-83
2022/09/05 08:07:14;;;;;;;1.95;0.80;;;33.90;50.40;;;;;;5053583;28;20036;-84
2022/09/05 08:09:42;;;;;;;4.90;0.88;;;34.20;49.60;;;;;;5053359;28;20077;-84
2022/09/05 08:12:17;;;;;;;5.85;0.80;;;34.20;49.40;;;;;;5053284;28;20032;-83
2022/09/05 08:14:51;;;;;;;8.05;0.93;;;34.40;47.90;;;;;;5052946;28;20032;-83
2022/09/05 08:17:21;;;;;;;8.70;0.90;;;34.40;48.20;;;;;;5071021;28;20101;-83
2022/09/05 08:20:06;;;;;;;3.38;1.27;;;34.50;47.10;;;;;;5053184;28;20442;-83
2022/09/05 08:22:51;;;;;;;1.73;1.00;;;34.10;47.40;;;;;;5059241;28;20028;-83
2022/09/05 08:25:35;;;;;;;4.45;0.90;;;34.00;49.20;;;;;;5050221;28;20048;-83
2022/09/05 08:28:39;;;;;;;4.03;0.98;;;34.20;47.30;;;;;;5032448;28;20048;-82
2022/09/05 08:31:23;;;;;;;3.35;0.80;;;34.40;46.90;;;;;;4980674;28;20037;-83
2022/09/05 08:33:55;;;;;;;2.40;0.77;;;34.40;46.90;;;;;;5012308;28;20025;-83
2022/09/05 08:36:35;;;;;;;4.57;1.10;;;34.50;47.10;;;;;;5024495;28;20516;-83
2022/09/05 08:39:05;;;;;;;3.05;0.80;;;34.50;46.50;;;;;;5032757;28;20052;-83
2022/09/05 08:41:49;;;;;;;6.95;1.48;;;34.60;45.00;;;;;;5035088;28;20038;-83
2022/09/05 08:44:31;;;;;;;9.27;1.33;;;34.10;45.80;;;;;;5052486;28;20060;-82
2022/09/05 08:47:16;;;;;;;1.98;0.90;;;34.10;46.40;;;;;;5052380;28;20036;-83
2022/09/05 08:50:12;;;;;;;5.88;1.15;;;34.40;46.90;;;;;;5051963;28;20033;-84
2022/09/05 08:53:07;;;;;;;2.25;0.90;;;34.80;45.60;;;;;;5051692;28;20064;-82
2022/09/05 08:56:09;;;;;;;2.67;0.88;;;34.80;45.40;;;;;;5051436;28;20078;-82
2022/09/05 08:58:58;;;;;;;2.35;0.73;;;35.00;45.80;;;;;;5007765;28;20034;-84
2022/09/05 09:01:59;;;;;;;1.83;0.70;;;34.80;45.50;;;;;;5066458;28;20044;-82
2022/09/05 09:04:40;;;;;;;4.72;0.90;;;34.60;45.10;;;;;;5052070;28;20028;-83
2022/09/05 09:07:06;;;;;;;4.60;1.05;;;34.40;45.80;;;;;;5051023;28;20100;-83
2022/09/05 09:09:38;;;;;;;3.35;0.90;;;34.60;45.40;;;;;;5051190;28;20115;-83
2022/09/05 09:12:18;;;;;;;5.80;1.00;;;34.50;44.80;;;;;;5051520;28;20024;-82
2022/09/05 09:15:19;;;;;;;5.32;1.10;;;34.40;45.70;;;;;;5051841;28;20111;-83
2022/09/05 09:17:49;;;;;;;2.28;0.90;;;34.60;45.30;;;;;;5058375;28;20067;-83
2022/09/05 09:20:20;;;;;;;6.93;1.13;;;34.80;44.30;;;;;;5051367;28;20094;-83
2022/09/05 09:23:09;;;;;;;4.50;1.05;;;34.30;44.80;;;;;;5051584;28;20025;-83
2022/09/05 09:25:41;;;;;;;1.80;0.90;;;34.40;44.70;;;;;;5069271;28;20017;-83
2022/09/05 09:28:34;;;;;;;1.40;0.95;;;34.80;44.80;;;;;;5051200;28;20523;-84
2022/09/05 09:31:12;;;;;;;6.63;0.95;;;35.20;44.50;;;;;;5050624;28;20558;-83
2022/09/05 09:33:50;;;;;;;3.70;0.90;;;35.50;43.60;;;;;;5050608;28;20118;-83
2022/09/05 09:36:54;;;;;;;3.38;1.00;;;35.80;42.50;;;;;;5050715;28;20079;-83
2022/09/05 09:39:33;;;;;;;5.90;1.00;;;35.90;42.50;;;;;;5050738;28;20107;-84
2022/09/05 09:42:20;;;;;;;6.85;0.90;;;35.80;43.10;;;;;;5068738;28;20024;-83
2022/09/05 09:45:10;;;;;;;2.50;0.68;;;36.10;42.60;;;;;;5057291;28;20054;-84
2022/09/05 09:47:44;;;;;;;2.17;0.70;;;36.40;42.30;;;;;;5081671;28;20056;-83
2022/09/05 09:50:41;;;;;;;1.80;1.00;;;36.40;41.90;;;;;;5073857;28;20029;-84
2022/09/05 09:53:37;;;;;;;3.03;1.00;;;36.20;41.30;;;;;;5052562;28;20028;-83
2022/09/05 09:56:06;;;;;;;;;;;35.60;42.00;;;;;;5052009;28;20024;-83
2022/09/05 09:58:40;;;;;;;1.83;0.68;;;34.90;42.80;;;;;;5051226;28;19904;-81
2022/09/05 10:01:30;;;;;;;8.95;0.93;;;34.80;43.60;;;;;;5050848;28;20020;-83
2022/09/05 10:04:06;;;;;;;6.57;1.00;;;35.40;42.90;;;;;;5050572;28;20064;-83
2022/09/05 10:06:49;;;;;;;1.77;0.95;;;35.50;41.50;;;;;;5050936;28;20036;-81
2022/09/05 10:09:33;;;;;;;2.60;0.85;;;35.10;42.40;;;;;;5050107;28;20031;-83
2022/09/05 10:12:34;;;;;;;4.35;0.95;;;34.80;42.40;;;;;;5051081;28;20046;-83
2022/09/05 10:15:08;;;;;;;5.72;1.48;;;33.80;43.00;;;;;;5029251;28;20032;-83
2022/09/05 10:17:45;;;;;;;2.22;0.95;;;33.20;42.30;;;;;;5051342;28;20028;-83
2022/09/05 10:20:38;;;;;;;2.80;1.10;;;32.20;43.60;;;;;;5069017;28;20060;-83
2022/09/05 10:23:04;;;;;;;1.95;0.88;;;31.70;44.10;;;;;;5049838;28;20033;-84
2022/09/05 10:25:49;;;;;;;4.20;1.10;;;31.00;46.00;;;;;;5049141;28;20055;-84
2022/09/05 10:28:32;;;;;;;7.68;1.05;;;30.20;46.70;;;;;;5068381;28;20465;-84
2022/09/05 10:31:17;;;;;;;2.45;1.20;;;29.50;48.10;;;;;;5050985;28;20025;-82
2022/09/05 10:33:50;;;;;;;4.10;1.20;;;28.90;48.40;;;;;;5050097;28;20086;-84
2022/09/05 10:36:22;;;;;;;1.77;0.82;;;28.60;49.60;;;;;;5068122;28;20473;-82
2022/09/05 10:39:11;;;;;;;3.33;1.25;;;28.40;49.80;;;;;;5050628;28;20020;-83
2022/09/05 10:41:50;;;;;;;2.88;0.70;;;28.40;50.50;;;;;;5050711;28;20085;-84
2022/09/05 10:44:46;;;;;;;2.35;1.10;;;28.50;51.60;;;;;;5050936;28;20774;-83
2022/09/05 10:47:33;;;;;;;2.83;0.90;;;28.40;51.80;;;;;;5050712;28;20182;-83
2022/09/05 10:50:10;;;;;;;9.40;1.48;;;28.40;52.30;;;;;;5050693;28;20578;-84
2022/09/05 10:52:42;;;;;;;2.92;0.80;;;28.30;52.40;;;;;;5051264;28;20033;-84
2022/09/05 10:55:29;;;;;;;2.13;0.80;;;28.30;52.70;;;;;;5050609;28;20078;-83
2022/09/05 10:58:01;;;;;;;1.65;1.02;;;28.10;53.30;;;;;;5050384;28;20048;-83
2022/09/05 11:00:33;;;;;;;4.45;1.50;;;28.00;52.70;;;;;;5068307;28;20059;-83
2022/09/05 11:03:00;;;;;;;6.88;1.15;;;28.00;52.90;;;;;;5051254;28;20496;-83
2022/09/05 11:05:50;;;;;;;1.48;0.82;;;27.70;52.80;;;;;;5068011;28;20032;-83
2022/09/05 11:08:42;;;;;;;4.22;1.10;;;27.60;53.60;;;;;;5068550;28;20032;-83
2022/09/05 11:11:17;;;;;;;3.53;1.55;;;27.30;53.70;;;;;;5068775;28;20477;-83
2022/09/05 11:13:48;;;;;;;3.63;0.90;;;27.10;54.50;;;;;;5045017;28;20033;-83
2022/09/05 11:16:41;;;;;;;1.52;0.90;;;26.90;55.30;;;;;;5030693;28;20017;-83
2022/09/05 11:19:35;;;;;;;3.45;1.00;;;26.80;55.50;;;;;;5030172;28;20462;-82
2022/09/05 11:22:08;;;;;;;3.70;1.05;;;27.00;54.70;;;;;;5056484;28;20028;-83
2022/09/05 11:24:54;;;;;;;11.70;2.22;;;27.00;54.60;;;;;;5050067;28;20128;-83
2022/09/05 11:27:34;;;;;;;1.70;0.88;;;27.10;54.80;;;;;;5050429;28;20052;-83
2022/09/05 11:30:05;;;;;;;4.88;0.90;;;27.00;54.50;;;;;;5052068;28;20024;-83
2022/09/05 11:33:04;;;;;;;2.13;1.00;;;26.90;55.50;;;;;;5054846;28;20028;-83
2022/09/05 11:35:55;;;;;;;2.50;1.13;;;26.80;55.60;;;;;;5053696;28;20028;-83
2022/09/05 11:38:42;;;;;;;3.78;1.10;;;26.80;55.50;;;;;;5054238;28;20559;-83
2022/09/05 11:41:19;;;;;;;1.60;0.98;;;26.80;55.60;;;;;;5053118;28;20020;-84
2022/09/05 11:44:06;;;;;;;3.33;1.00;;;26.70;56.10;;;;;;5053719;28;20029;-81
2022/09/05 11:47:17;;;;;;;5.10;0.70;;;26.60;57.60;;;;;;5053643;28;20720;-83
2022/09/05 11:50:13;;;;;;;2.08;0.93;;;26.60;56.90;;;;;;5047038;28;20043;-83
2022/09/05 11:52:45;;;;;;;;;;;26.80;55.20;;;;;;5054412;28;20032;-84
2022/09/05 11:55:23;;;;;;;2.78;1.10;;;26.70;56.40;;;;;;5053603;28;19908;-82
2022/09/05 11:57:58;;;;;;;6.90;1.00;;;26.70;56.70;;;;;;5071703;28;20021;-83
2022/09/05 12:00:47;;;;;;;2.63;0.85;;;26.70;56.30;;;;;;5053740;28;20036;-83
2022/09/05 12:03:21;;;;;;;1.38;0.93;;;26.80;56.90;;;;;;5039303;28;20045;-83
2022/09/05 12:05:53;;;;;;;6.80;1.13;;;26.90;57.10;;;;;;5052988;28;20400;-83
2022/09/05 12:08:48;;;;;;;4.57;1.10;;;27.00;55.10;;;;;;5071434;28;20039;-83
2022/09/05 12:11:35;;;;;;;2.03;0.73;;;27.10;54.50;;;;;;5053350;28;20063;-83
2022/09/05 12:14:38;;;;;;;6.25;1.40;;;27.30;55.20;;;;;;5062618;28;20025;-83
2022/09/05 12:17:31;;;;;;;3.53;1.08;;;27.40;53.90;;;;;;5031254;28;20036;-83
2022/09/05 12:20:28;;;;;;;3.28;0.90;;;27.50;54.40;;;;;;5033637;28;20032;-82
2022/09/05 12:23:16;;;;;;;3.03;1.13;;;27.60;54.30;;;;;;5048009;28;20094;-83
2022/09/05 12:26:08;;;;;;;2.35;1.10;;;27.60;53.90;;;;;;5052920;28;20024;-84
2022/09/05 12:28:48;;;;;;;3.45;1.13;;;27.70;55.20;;;;;;5070952;28;20032;-82
2022/09/05 12:31:26;;;;;;;2.95;1.20;;;27.70;54.70;;;;;;5051731;28;20028;-83
2022/09/05 12:33:52;;;;;;;2.50;0.95;;;27.70;54.30;;;;;;5052282;28;20040;-82
2022/09/05 12:36:42;;;;;;;3.33;1.10;;;27.80;54.60;;;;;;5069770;28;20069;-83
2022/09/05 12:39:43;;;;;;;7.40;1.73;;;27.90;53.90;;;;;;5052478;28;20029;-83
2022/09/05 12:42:20;;;;;;;4.57;0.90;;;28.00;53.40;;;;;;5051385;28;20016;-82
2022/09/05 12:45:14;;;;;;;2.38;1.00;;;28.00;54.00;;;;;;5052071;28;20029;-83
2022/09/05 12:47:53;;;;;;;3.40;0.90;;;28.10;55.10;;;;;;5069459;28;20060;-83
2022/09/05 12:50:24;;;;;;;2.30;0.90;;;28.10;53.90;;;;;;5070235;28;20097;-83
2022/09/05 12:52:58;;;;;;;4.93;1.20;;;28.10;54.30;;;;;;5052300;28;20024;-83
2022/09/05 12:55:57;;;;;;;2.50;1.08;;;28.10;53.60;;;;;;5069928;28;20032;-83
2022/09/05 12:58:34;;;;;;;2.33;0.93;;;28.00;53.50;;;;;;5057271;28;20045;-84
2022/09/05 13:01:24;;;;;;;4.65;0.90;;;28.00;54.50;;;;;;5051996;28;20097;-83
2022/09/05 13:04:01;;;;;;;3.88;1.40;;;27.90;54.50;;;;;;5042782;28;20024;-82
2022/09/05 13:06:34;;;;;;;4.35;0.90;;;27.80;54.40;;;;;;5052229;28;20041;-83
2022/09/05 13:09:15;;;;;;;3.45;0.82;;;27.70;54.20;;;;;;5052207;28;20025;-83
2022/09/05 13:11:50;;;;;;;1.83;1.23;;;27.50;54.10;;;;;;5052023;28;20418;-82
2022/09/05 13:14:31;;;;;;;3.40;0.95;;;27.50;54.60;;;;;;5052196;28;20058;-82
2022/09/05 13:16:59;;;;;;;4.25;0.85;;;27.50;54.80;;;;;;5051671;28;20041;-83
2022/09/05 13:19:49;;;;;;;3.50;0.85;;;27.50;54.00;;;;;;5050669;28;20029;-83
2022/09/05 13:22:18;;;;;;;3.13;1.20;;;27.30;55.20;;;;;;5050058;28;20026;-82
2022/09/05 13:24:52;;;;;;;3.25;1.00;;;27.30;54.60;;;;;;5069941;28;20497;-83
2022/09/05 13:27:30;;;;;;;8.60;0.77;;;27.30;54.50;;;;;;5051434;28;20040;-82
2022/09/05 13:30:19;;;;;;;3.90;1.00;;;27.20;54.90;;;;;;5050978;28;20119;-82
2022/09/05 13:32:50;;;;;;;2.85;0.73;;;27.20;55.30;;;;;;5051069;28;20055;-83
2022/09/05 13:35:28;;;;;;;8.23;0.90;;;27.30;55.50;;;;;;5068598;28;20054;-83
2022/09/05 13:38:08;;;;;;;1.73;0.80;;;27.30;55.10;;;;;;5051420;28;20564;-81
2022/09/05 13:40:43;;;;;;;1.85;1.00;;;27.30;55.10;;;;;;5050877;28;20038;-83
2022/09/05 13:43:37;;;;;;;2.58;1.10;;;27.40;54.50;;;;;;5051182;28;20496;-82
2022/09/05 13:46:24;;;;;;;2.13;1.10;;;27.20;53.90;;;;;;5049620;28;20032;-83
2022/09/05 13:48:55;;;;;;;4.80;1.00;;;27.00;54.90;;;;;;5027652;28;20132;-83
2022/09/05 13:51:42;;;;;;;3.05;1.35;;;26.90;54.60;;;;;;5027490;28;20524;-83
2022/09/05 13:54:10;;;;;;;2.63;1.02;;;26.90;54.90;;;;;;5028097;28;20026;-82
2022/09/05 13:56:47;;;;;;;3.70;1.05;;;26.90;55.20;;;;;;5027734;28;20033;-83
2022/09/05 13:59:14;;;;;;;4.55;1.10;;;26.90;54.60;;;;;;5029182;28;20034;-83
2022/09/05 14:02:18;;;;;;;6.53;1.10;;;26.80;55.20;;;;;;5027457;28;20111;-81
2022/09/05 14:05:18;;;;;;;2.42;0.90;;;26.70;56.10;;;;;;5027922;28;20029;-82
2022/09/05 14:08:16;;;;;;;11.95;0.90;;;26.70;56.60;;;;;;5027916;28;20041;-83